<?xml version="1.0" encoding="utf-8"?>
<gpx xmlns:xsi="http://www.w3.org/2001/XMLSchema-instance" xmlns:xsd="http://www.w3.org/2001/XMLSchema" version="1.1" creator="Shapelink.com" xmlns="http://www.topografix.com/GPX/1/1" xmlns:gpxtpx="http://www.garmin.com/xmlschemas/TrackPointExtension/v1">
  <metadata>
    <name>Längdskidåkning - Klassisk 7.50 km, 2014-04-19</name>
    <desc></desc>
    <author><name>Alexander Engvall</name></author> 
    <time>2014-04-19T16:14:34Z</time>
  </metadata>
  <trk>
    <name>Längdskidåkning - Klassisk 7.50 km, 2014-04-19</name>
    <trkseg>
      <trkpt lat="62.494865" lon="14.1574996">
        <ele>799</ele>
        <time>2014-04-19T16:14:34Z</time>
      </trkpt>
      <trkpt lat="62.494967" lon="14.1574001">
        <ele>799</ele>
        <time>2014-04-19T16:14:39Z</time>
      </trkpt>
      <trkpt lat="62.4951096" lon="14.1572192">
        <ele>799</ele>
        <time>2014-04-19T16:14:45Z</time>
      </trkpt>
      <trkpt lat="62.4952086" lon="14.1571286">
        <ele>799</ele>
        <time>2014-04-19T16:14:49Z</time>
      </trkpt>
      <trkpt lat="62.4953504" lon="14.1570778">
        <ele>798.8</ele>
        <time>2014-04-19T16:14:53Z</time>
      </trkpt>
      <trkpt lat="62.4954163" lon="14.1569328">
        <ele>798.8</ele>
        <time>2014-04-19T16:14:57Z</time>
      </trkpt>
      <trkpt lat="62.4955049" lon="14.1567638">
        <ele>798.8</ele>
        <time>2014-04-19T16:15:03Z</time>
      </trkpt>
      <trkpt lat="62.4955732" lon="14.1566266">
        <ele>798.6</ele>
        <time>2014-04-19T16:15:08Z</time>
      </trkpt>
      <trkpt lat="62.4956456" lon="14.1564675">
        <ele>798.6</ele>
        <time>2014-04-19T16:15:13Z</time>
      </trkpt>
      <trkpt lat="62.495696" lon="14.1562983">
        <ele>798.8</ele>
        <time>2014-04-19T16:15:17Z</time>
      </trkpt>
      <trkpt lat="62.4957874" lon="14.156106">
        <ele>799</ele>
        <time>2014-04-19T16:15:22Z</time>
      </trkpt>
      <trkpt lat="62.4958619" lon="14.155921">
        <ele>799.6</ele>
        <time>2014-04-19T16:15:27Z</time>
      </trkpt>
      <trkpt lat="62.4959082" lon="14.1558356">
        <ele>799.6</ele>
        <time>2014-04-19T16:15:30Z</time>
      </trkpt>
      <trkpt lat="62.495943" lon="14.1557964">
        <ele>800.4</ele>
        <time>2014-04-19T16:15:42Z</time>
      </trkpt>
      <trkpt lat="62.4959719" lon="14.1557734">
        <ele>800.6</ele>
        <time>2014-04-19T16:15:45Z</time>
      </trkpt>
      <trkpt lat="62.4960102" lon="14.1557505">
        <ele>800.6</ele>
        <time>2014-04-19T16:15:47Z</time>
      </trkpt>
      <trkpt lat="62.4960882" lon="14.1557535">
        <ele>800.8</ele>
        <time>2014-04-19T16:15:50Z</time>
      </trkpt>
      <trkpt lat="62.496115" lon="14.1557606">
        <ele>800.8</ele>
        <time>2014-04-19T16:15:51Z</time>
      </trkpt>
      <trkpt lat="62.4962024" lon="14.1558809">
        <ele>800.6</ele>
        <time>2014-04-19T16:15:55Z</time>
      </trkpt>
      <trkpt lat="62.4962993" lon="14.1559981">
        <ele>800.6</ele>
        <time>2014-04-19T16:15:59Z</time>
      </trkpt>
      <trkpt lat="62.4963718" lon="14.1560643">
        <ele>800.6</ele>
        <time>2014-04-19T16:16:03Z</time>
      </trkpt>
      <trkpt lat="62.4964034" lon="14.1560876">
        <ele>800.6</ele>
        <time>2014-04-19T16:16:04Z</time>
      </trkpt>
      <trkpt lat="62.496455" lon="14.156117">
        <ele>800.6</ele>
        <time>2014-04-19T16:16:06Z</time>
      </trkpt>
      <trkpt lat="62.4965603" lon="14.156287">
        <ele>800.4</ele>
        <time>2014-04-19T16:16:10Z</time>
      </trkpt>
      <trkpt lat="62.4966775" lon="14.1564773">
        <ele>800.4</ele>
        <time>2014-04-19T16:16:14Z</time>
      </trkpt>
      <trkpt lat="62.4968393" lon="14.1566324">
        <ele>800.2</ele>
        <time>2014-04-19T16:16:18Z</time>
      </trkpt>
      <trkpt lat="62.4970186" lon="14.1567216">
        <ele>800.2</ele>
        <time>2014-04-19T16:16:22Z</time>
      </trkpt>
      <trkpt lat="62.4970581" lon="14.1567111">
        <ele>800.2</ele>
        <time>2014-04-19T16:16:23Z</time>
      </trkpt>
      <trkpt lat="62.4971172" lon="14.1566797">
        <ele>800.2</ele>
        <time>2014-04-19T16:16:25Z</time>
      </trkpt>
      <trkpt lat="62.4971993" lon="14.1566138">
        <ele>800.2</ele>
        <time>2014-04-19T16:16:28Z</time>
      </trkpt>
      <trkpt lat="62.4973767" lon="14.1563848">
        <ele>800.2</ele>
        <time>2014-04-19T16:16:35Z</time>
      </trkpt>
      <trkpt lat="62.4974292" lon="14.1560778">
        <ele>800.2</ele>
        <time>2014-04-19T16:16:39Z</time>
      </trkpt>
      <trkpt lat="62.4974227" lon="14.1559716">
        <ele>800.2</ele>
        <time>2014-04-19T16:16:41Z</time>
      </trkpt>
      <trkpt lat="62.4974014" lon="14.1558819">
        <ele>800.4</ele>
        <time>2014-04-19T16:16:43Z</time>
      </trkpt>
      <trkpt lat="62.4973624" lon="14.1556212">
        <ele>800.4</ele>
        <time>2014-04-19T16:16:48Z</time>
      </trkpt>
      <trkpt lat="62.4973792" lon="14.1554218">
        <ele>800.6</ele>
        <time>2014-04-19T16:16:52Z</time>
      </trkpt>
      <trkpt lat="62.4973877" lon="14.1553267">
        <ele>800.6</ele>
        <time>2014-04-19T16:16:55Z</time>
      </trkpt>
      <trkpt lat="62.4973536" lon="14.1550307">
        <ele>803.8</ele>
        <time>2014-04-19T16:18:39Z</time>
      </trkpt>
      <trkpt lat="62.4973319" lon="14.1549661">
        <ele>803.8</ele>
        <time>2014-04-19T16:18:40Z</time>
      </trkpt>
      <trkpt lat="62.497289" lon="14.1546098">
        <ele>803.8</ele>
        <time>2014-04-19T16:18:45Z</time>
      </trkpt>
      <trkpt lat="62.4972826" lon="14.1545204">
        <ele>803.8</ele>
        <time>2014-04-19T16:18:46Z</time>
      </trkpt>
      <trkpt lat="62.4972669" lon="14.1542746">
        <ele>803.8</ele>
        <time>2014-04-19T16:18:49Z</time>
      </trkpt>
      <trkpt lat="62.497237" lon="14.1541258">
        <ele>803.8</ele>
        <time>2014-04-19T16:18:51Z</time>
      </trkpt>
      <trkpt lat="62.4971843" lon="14.153997">
        <ele>803.6</ele>
        <time>2014-04-19T16:18:53Z</time>
      </trkpt>
      <trkpt lat="62.4970892" lon="14.1536849">
        <ele>803.6</ele>
        <time>2014-04-19T16:18:57Z</time>
      </trkpt>
      <trkpt lat="62.4969956" lon="14.1535996">
        <ele>803.6</ele>
        <time>2014-04-19T16:19:00Z</time>
      </trkpt>
      <trkpt lat="62.4968434" lon="14.1533871">
        <ele>803.4</ele>
        <time>2014-04-19T16:19:05Z</time>
      </trkpt>
      <trkpt lat="62.4967707" lon="14.1530873">
        <ele>803.4</ele>
        <time>2014-04-19T16:19:10Z</time>
      </trkpt>
      <trkpt lat="62.4967474" lon="14.153051">
        <ele>803.4</ele>
        <time>2014-04-19T16:19:11Z</time>
      </trkpt>
      <trkpt lat="62.4967063" lon="14.1529378">
        <ele>803.4</ele>
        <time>2014-04-19T16:19:14Z</time>
      </trkpt>
      <trkpt lat="62.4966467" lon="14.1527303">
        <ele>803.2</ele>
        <time>2014-04-19T16:19:18Z</time>
      </trkpt>
      <trkpt lat="62.4966175" lon="14.1525408">
        <ele>803.2</ele>
        <time>2014-04-19T16:19:21Z</time>
      </trkpt>
      <trkpt lat="62.4966401" lon="14.1521971">
        <ele>803</ele>
        <time>2014-04-19T16:19:26Z</time>
      </trkpt>
      <trkpt lat="62.4967285" lon="14.1519467">
        <ele>803</ele>
        <time>2014-04-19T16:19:30Z</time>
      </trkpt>
      <trkpt lat="62.496869" lon="14.1514566">
        <ele>802.6</ele>
        <time>2014-04-19T16:19:36Z</time>
      </trkpt>
      <trkpt lat="62.4969815" lon="14.1509864">
        <ele>802.4</ele>
        <time>2014-04-19T16:19:41Z</time>
      </trkpt>
      <trkpt lat="62.49704" lon="14.150815">
        <ele>802.2</ele>
        <time>2014-04-19T16:19:43Z</time>
      </trkpt>
      <trkpt lat="62.4971587" lon="14.1505829">
        <ele>802</ele>
        <time>2014-04-19T16:19:46Z</time>
      </trkpt>
      <trkpt lat="62.4972302" lon="14.1503871">
        <ele>801.8</ele>
        <time>2014-04-19T16:19:48Z</time>
      </trkpt>
      <trkpt lat="62.4972726" lon="14.1501967">
        <ele>801.6</ele>
        <time>2014-04-19T16:19:50Z</time>
      </trkpt>
      <trkpt lat="62.4973066" lon="14.1500055">
        <ele>801.4</ele>
        <time>2014-04-19T16:19:52Z</time>
      </trkpt>
      <trkpt lat="62.4974014" lon="14.1496558">
        <ele>801</ele>
        <time>2014-04-19T16:19:56Z</time>
      </trkpt>
      <trkpt lat="62.4975654" lon="14.1494272">
        <ele>800.6</ele>
        <time>2014-04-19T16:20:00Z</time>
      </trkpt>
      <trkpt lat="62.4976073" lon="14.1493543">
        <ele>800.4</ele>
        <time>2014-04-19T16:20:01Z</time>
      </trkpt>
      <trkpt lat="62.4976768" lon="14.1490272">
        <ele>800</ele>
        <time>2014-04-19T16:20:04Z</time>
      </trkpt>
      <trkpt lat="62.4976999" lon="14.1486171">
        <ele>799.4</ele>
        <time>2014-04-19T16:20:08Z</time>
      </trkpt>
      <trkpt lat="62.4977028" lon="14.1485183">
        <ele>799.4</ele>
        <time>2014-04-19T16:20:09Z</time>
      </trkpt>
      <trkpt lat="62.4976981" lon="14.1484066">
        <ele>799</ele>
        <time>2014-04-19T16:20:11Z</time>
      </trkpt>
      <trkpt lat="62.4976911" lon="14.1483708">
        <ele>799</ele>
        <time>2014-04-19T16:20:12Z</time>
      </trkpt>
      <trkpt lat="62.4976833" lon="14.148343">
        <ele>798.6</ele>
        <time>2014-04-19T16:20:15Z</time>
      </trkpt>
      <trkpt lat="62.4976856" lon="14.1483489">
        <ele>798.6</ele>
        <time>2014-04-19T16:20:16Z</time>
      </trkpt>
      <trkpt lat="62.4976534" lon="14.1482217">
        <ele>796.8</ele>
        <time>2014-04-19T16:20:34Z</time>
      </trkpt>
      <trkpt lat="62.4976118" lon="14.148004">
        <ele>796.4</ele>
        <time>2014-04-19T16:20:39Z</time>
      </trkpt>
      <trkpt lat="62.4975836" lon="14.1477826">
        <ele>796</ele>
        <time>2014-04-19T16:20:43Z</time>
      </trkpt>
      <trkpt lat="62.49756" lon="14.1476791">
        <ele>795.8</ele>
        <time>2014-04-19T16:20:45Z</time>
      </trkpt>
      <trkpt lat="62.4975554" lon="14.1476374">
        <ele>795.8</ele>
        <time>2014-04-19T16:20:46Z</time>
      </trkpt>
      <trkpt lat="62.4975159" lon="14.1474217">
        <ele>795.6</ele>
        <time>2014-04-19T16:20:50Z</time>
      </trkpt>
      <trkpt lat="62.497533" lon="14.1472706">
        <ele>795.4</ele>
        <time>2014-04-19T16:20:53Z</time>
      </trkpt>
      <trkpt lat="62.4975589" lon="14.1470855">
        <ele>795.2</ele>
        <time>2014-04-19T16:20:56Z</time>
      </trkpt>
      <trkpt lat="62.4975827" lon="14.1469586">
        <ele>795.2</ele>
        <time>2014-04-19T16:20:58Z</time>
      </trkpt>
      <trkpt lat="62.4975902" lon="14.1468504">
        <ele>795</ele>
        <time>2014-04-19T16:21:00Z</time>
      </trkpt>
      <trkpt lat="62.4975882" lon="14.1466664">
        <ele>794.8</ele>
        <time>2014-04-19T16:21:04Z</time>
      </trkpt>
      <trkpt lat="62.4975766" lon="14.1464945">
        <ele>794.6</ele>
        <time>2014-04-19T16:21:07Z</time>
      </trkpt>
      <trkpt lat="62.4975473" lon="14.1462522">
        <ele>794.4</ele>
        <time>2014-04-19T16:21:12Z</time>
      </trkpt>
      <trkpt lat="62.4975199" lon="14.1461614">
        <ele>794.2</ele>
        <time>2014-04-19T16:21:15Z</time>
      </trkpt>
      <trkpt lat="62.4975028" lon="14.1461193">
        <ele>794.2</ele>
        <time>2014-04-19T16:21:16Z</time>
      </trkpt>
      <trkpt lat="62.4975037" lon="14.1461023">
        <ele>794.2</ele>
        <time>2014-04-19T16:21:17Z</time>
      </trkpt>
      <trkpt lat="62.4974858" lon="14.1460534">
        <ele>794.2</ele>
        <time>2014-04-19T16:21:19Z</time>
      </trkpt>
      <trkpt lat="62.497442" lon="14.1459281">
        <ele>794</ele>
        <time>2014-04-19T16:21:22Z</time>
      </trkpt>
      <trkpt lat="62.4973816" lon="14.145805">
        <ele>794</ele>
        <time>2014-04-19T16:21:25Z</time>
      </trkpt>
      <trkpt lat="62.49736" lon="14.1457618">
        <ele>794</ele>
        <time>2014-04-19T16:21:26Z</time>
      </trkpt>
      <trkpt lat="62.4972918" lon="14.1455285">
        <ele>794</ele>
        <time>2014-04-19T16:21:30Z</time>
      </trkpt>
      <trkpt lat="62.4972204" lon="14.1452886">
        <ele>793.8</ele>
        <time>2014-04-19T16:21:34Z</time>
      </trkpt>
      <trkpt lat="62.4971954" lon="14.1452123">
        <ele>793.8</ele>
        <time>2014-04-19T16:21:35Z</time>
      </trkpt>
      <trkpt lat="62.497161" lon="14.1449715">
        <ele>793.8</ele>
        <time>2014-04-19T16:21:38Z</time>
      </trkpt>
      <trkpt lat="62.4971568" lon="14.1447005">
        <ele>793.8</ele>
        <time>2014-04-19T16:21:42Z</time>
      </trkpt>
      <trkpt lat="62.4971282" lon="14.1445275">
        <ele>793.8</ele>
        <time>2014-04-19T16:21:45Z</time>
      </trkpt>
      <trkpt lat="62.4971038" lon="14.1444324">
        <ele>793.6</ele>
        <time>2014-04-19T16:21:48Z</time>
      </trkpt>
      <trkpt lat="62.4970526" lon="14.1443004">
        <ele>793.6</ele>
        <time>2014-04-19T16:21:51Z</time>
      </trkpt>
      <trkpt lat="62.4970269" lon="14.1441119">
        <ele>793.4</ele>
        <time>2014-04-19T16:21:55Z</time>
      </trkpt>
      <trkpt lat="62.4970088" lon="14.1438028">
        <ele>793.2</ele>
        <time>2014-04-19T16:22:00Z</time>
      </trkpt>
      <trkpt lat="62.4969721" lon="14.1436251">
        <ele>793.2</ele>
        <time>2014-04-19T16:22:04Z</time>
      </trkpt>
      <trkpt lat="62.4969417" lon="14.1434028">
        <ele>793</ele>
        <time>2014-04-19T16:22:08Z</time>
      </trkpt>
      <trkpt lat="62.4969097" lon="14.1431517">
        <ele>792.8</ele>
        <time>2014-04-19T16:22:12Z</time>
      </trkpt>
      <trkpt lat="62.496882" lon="14.1430506">
        <ele>792.8</ele>
        <time>2014-04-19T16:22:15Z</time>
      </trkpt>
      <trkpt lat="62.4968273" lon="14.1429366">
        <ele>792.6</ele>
        <time>2014-04-19T16:22:18Z</time>
      </trkpt>
      <trkpt lat="62.4967526" lon="14.1427813">
        <ele>792.6</ele>
        <time>2014-04-19T16:22:22Z</time>
      </trkpt>
      <trkpt lat="62.4967537" lon="14.1427596">
        <ele>792.6</ele>
        <time>2014-04-19T16:22:23Z</time>
      </trkpt>
      <trkpt lat="62.4967305" lon="14.1426878">
        <ele>792.6</ele>
        <time>2014-04-19T16:22:25Z</time>
      </trkpt>
      <trkpt lat="62.496678" lon="14.1425616">
        <ele>792.8</ele>
        <time>2014-04-19T16:22:28Z</time>
      </trkpt>
      <trkpt lat="62.496635" lon="14.1424091">
        <ele>792.8</ele>
        <time>2014-04-19T16:22:32Z</time>
      </trkpt>
      <trkpt lat="62.4965775" lon="14.1422449">
        <ele>792.8</ele>
        <time>2014-04-19T16:22:35Z</time>
      </trkpt>
      <trkpt lat="62.4965055" lon="14.1421111">
        <ele>792.8</ele>
        <time>2014-04-19T16:22:39Z</time>
      </trkpt>
      <trkpt lat="62.4963901" lon="14.141891">
        <ele>792.8</ele>
        <time>2014-04-19T16:22:45Z</time>
      </trkpt>
      <trkpt lat="62.4963338" lon="14.1417062">
        <ele>793</ele>
        <time>2014-04-19T16:22:48Z</time>
      </trkpt>
      <trkpt lat="62.496251" lon="14.1415255">
        <ele>792.8</ele>
        <time>2014-04-19T16:22:52Z</time>
      </trkpt>
      <trkpt lat="62.4961129" lon="14.1413947">
        <ele>792.8</ele>
        <time>2014-04-19T16:22:56Z</time>
      </trkpt>
      <trkpt lat="62.4959471" lon="14.141301">
        <ele>792.8</ele>
        <time>2014-04-19T16:23:00Z</time>
      </trkpt>
      <trkpt lat="62.4957824" lon="14.1412211">
        <ele>792.6</ele>
        <time>2014-04-19T16:23:04Z</time>
      </trkpt>
      <trkpt lat="62.4957503" lon="14.1411741">
        <ele>792.6</ele>
        <time>2014-04-19T16:23:05Z</time>
      </trkpt>
      <trkpt lat="62.4956458" lon="14.1410203">
        <ele>792.6</ele>
        <time>2014-04-19T16:23:09Z</time>
      </trkpt>
      <trkpt lat="62.4955659" lon="14.1408831">
        <ele>792.6</ele>
        <time>2014-04-19T16:23:12Z</time>
      </trkpt>
      <trkpt lat="62.4954404" lon="14.1406237">
        <ele>792.4</ele>
        <time>2014-04-19T16:23:19Z</time>
      </trkpt>
      <trkpt lat="62.4954625" lon="14.1406472">
        <ele>792.2</ele>
        <time>2014-04-19T16:23:23Z</time>
      </trkpt>
      <trkpt lat="62.4954775" lon="14.1406607">
        <ele>792.2</ele>
        <time>2014-04-19T16:23:25Z</time>
      </trkpt>
      <trkpt lat="62.4954767" lon="14.1406731">
        <ele>792.2</ele>
        <time>2014-04-19T16:23:28Z</time>
      </trkpt>
      <trkpt lat="62.4954779" lon="14.1406611">
        <ele>792</ele>
        <time>2014-04-19T16:23:32Z</time>
      </trkpt>
      <trkpt lat="62.4956675" lon="14.1377615">
        <ele>785.6</ele>
        <time>2014-04-19T16:29:38Z</time>
      </trkpt>
      <trkpt lat="62.4957055" lon="14.1377391">
        <ele>785.4</ele>
        <time>2014-04-19T16:29:39Z</time>
      </trkpt>
      <trkpt lat="62.4957782" lon="14.1377137">
        <ele>785.2</ele>
        <time>2014-04-19T16:29:41Z</time>
      </trkpt>
      <trkpt lat="62.4958663" lon="14.1377134">
        <ele>785</ele>
        <time>2014-04-19T16:29:44Z</time>
      </trkpt>
      <trkpt lat="62.4959925" lon="14.1375608">
        <ele>784.2</ele>
        <time>2014-04-19T16:29:50Z</time>
      </trkpt>
      <trkpt lat="62.4960285" lon="14.1374668">
        <ele>784</ele>
        <time>2014-04-19T16:29:52Z</time>
      </trkpt>
      <trkpt lat="62.4961043" lon="14.1372554">
        <ele>783.4</ele>
        <time>2014-04-19T16:29:56Z</time>
      </trkpt>
      <trkpt lat="62.4961659" lon="14.1370132">
        <ele>782.6</ele>
        <time>2014-04-19T16:30:01Z</time>
      </trkpt>
      <trkpt lat="62.496223" lon="14.1365466">
        <ele>781.8</ele>
        <time>2014-04-19T16:30:07Z</time>
      </trkpt>
      <trkpt lat="62.4962951" lon="14.1360624">
        <ele>781</ele>
        <time>2014-04-19T16:30:12Z</time>
      </trkpt>
      <trkpt lat="62.4963603" lon="14.1357671">
        <ele>780.4</ele>
        <time>2014-04-19T16:30:15Z</time>
      </trkpt>
      <trkpt lat="62.4964161" lon="14.1354382">
        <ele>779.8</ele>
        <time>2014-04-19T16:30:18Z</time>
      </trkpt>
      <trkpt lat="62.4964879" lon="14.1349525">
        <ele>779</ele>
        <time>2014-04-19T16:30:22Z</time>
      </trkpt>
      <trkpt lat="62.4964955" lon="14.134839">
        <ele>778.8</ele>
        <time>2014-04-19T16:30:23Z</time>
      </trkpt>
      <trkpt lat="62.4964904" lon="14.1341666">
        <ele>777.6</ele>
        <time>2014-04-19T16:30:29Z</time>
      </trkpt>
      <trkpt lat="62.4964876" lon="14.1339148">
        <ele>777</ele>
        <time>2014-04-19T16:30:31Z</time>
      </trkpt>
      <trkpt lat="62.4964486" lon="14.1336924">
        <ele>776.6</ele>
        <time>2014-04-19T16:30:33Z</time>
      </trkpt>
      <trkpt lat="62.4963641" lon="14.1333602">
        <ele>775.6</ele>
        <time>2014-04-19T16:30:37Z</time>
      </trkpt>
      <trkpt lat="62.4963405" lon="14.1332111">
        <ele>775.2</ele>
        <time>2014-04-19T16:30:39Z</time>
      </trkpt>
      <trkpt lat="62.4963444" lon="14.1329703">
        <ele>774.6</ele>
        <time>2014-04-19T16:30:42Z</time>
      </trkpt>
      <trkpt lat="62.496435" lon="14.1326756">
        <ele>773.6</ele>
        <time>2014-04-19T16:30:46Z</time>
      </trkpt>
      <trkpt lat="62.4965566" lon="14.1323384">
        <ele>772.6</ele>
        <time>2014-04-19T16:30:51Z</time>
      </trkpt>
      <trkpt lat="62.4966143" lon="14.1322104">
        <ele>772.2</ele>
        <time>2014-04-19T16:30:53Z</time>
      </trkpt>
      <trkpt lat="62.4966884" lon="14.1321447">
        <ele>771.8</ele>
        <time>2014-04-19T16:30:55Z</time>
      </trkpt>
      <trkpt lat="62.4967654" lon="14.1321283">
        <ele>771.4</ele>
        <time>2014-04-19T16:30:57Z</time>
      </trkpt>
      <trkpt lat="62.4968464" lon="14.132078">
        <ele>771</ele>
        <time>2014-04-19T16:30:59Z</time>
      </trkpt>
      <trkpt lat="62.4968804" lon="14.1320348">
        <ele>770.8</ele>
        <time>2014-04-19T16:31:00Z</time>
      </trkpt>
      <trkpt lat="62.4969551" lon="14.1318919">
        <ele>770.2</ele>
        <time>2014-04-19T16:31:03Z</time>
      </trkpt>
      <trkpt lat="62.4969987" lon="14.1317834">
        <ele>769.8</ele>
        <time>2014-04-19T16:31:05Z</time>
      </trkpt>
      <trkpt lat="62.497108" lon="14.13148">
        <ele>768.8</ele>
        <time>2014-04-19T16:31:10Z</time>
      </trkpt>
      <trkpt lat="62.4972074" lon="14.1312363">
        <ele>768.2</ele>
        <time>2014-04-19T16:31:14Z</time>
      </trkpt>
      <trkpt lat="62.4973152" lon="14.1309939">
        <ele>767.2</ele>
        <time>2014-04-19T16:31:19Z</time>
      </trkpt>
      <trkpt lat="62.4974047" lon="14.1306756">
        <ele>766.4</ele>
        <time>2014-04-19T16:31:24Z</time>
      </trkpt>
      <trkpt lat="62.4975117" lon="14.1303617">
        <ele>765.6</ele>
        <time>2014-04-19T16:31:29Z</time>
      </trkpt>
      <trkpt lat="62.4976058" lon="14.130058">
        <ele>764.8</ele>
        <time>2014-04-19T16:31:33Z</time>
      </trkpt>
      <trkpt lat="62.4976761" lon="14.1298209">
        <ele>764.2</ele>
        <time>2014-04-19T16:31:36Z</time>
      </trkpt>
      <trkpt lat="62.497709" lon="14.1297661">
        <ele>764</ele>
        <time>2014-04-19T16:31:37Z</time>
      </trkpt>
      <trkpt lat="62.4977984" lon="14.1296634">
        <ele>763.4</ele>
        <time>2014-04-19T16:31:40Z</time>
      </trkpt>
      <trkpt lat="62.4978433" lon="14.1295875">
        <ele>763.2</ele>
        <time>2014-04-19T16:31:42Z</time>
      </trkpt>
      <trkpt lat="62.4978889" lon="14.1294249">
        <ele>762.6</ele>
        <time>2014-04-19T16:31:45Z</time>
      </trkpt>
      <trkpt lat="62.4979042" lon="14.1293698">
        <ele>762.4</ele>
        <time>2014-04-19T16:31:46Z</time>
      </trkpt>
      <trkpt lat="62.4980055" lon="14.129193">
        <ele>761.8</ele>
        <time>2014-04-19T16:31:50Z</time>
      </trkpt>
      <trkpt lat="62.4980808" lon="14.1290215">
        <ele>761.2</ele>
        <time>2014-04-19T16:31:54Z</time>
      </trkpt>
      <trkpt lat="62.4981484" lon="14.1287494">
        <ele>760.4</ele>
        <time>2014-04-19T16:31:59Z</time>
      </trkpt>
      <trkpt lat="62.4982368" lon="14.1285118">
        <ele>759.8</ele>
        <time>2014-04-19T16:32:04Z</time>
      </trkpt>
      <trkpt lat="62.4983443" lon="14.1283562">
        <ele>759.2</ele>
        <time>2014-04-19T16:32:08Z</time>
      </trkpt>
      <trkpt lat="62.4984479" lon="14.1281689">
        <ele>758.6</ele>
        <time>2014-04-19T16:32:13Z</time>
      </trkpt>
      <trkpt lat="62.4984947" lon="14.1278751">
        <ele>758</ele>
        <time>2014-04-19T16:32:18Z</time>
      </trkpt>
      <trkpt lat="62.498498" lon="14.1278088">
        <ele>757.8</ele>
        <time>2014-04-19T16:32:19Z</time>
      </trkpt>
      <trkpt lat="62.4985414" lon="14.1275079">
        <ele>757.2</ele>
        <time>2014-04-19T16:32:23Z</time>
      </trkpt>
      <trkpt lat="62.4986371" lon="14.1271006">
        <ele>756.2</ele>
        <time>2014-04-19T16:32:29Z</time>
      </trkpt>
      <trkpt lat="62.498632" lon="14.1266868">
        <ele>755.4</ele>
        <time>2014-04-19T16:32:34Z</time>
      </trkpt>
      <trkpt lat="62.4985284" lon="14.1262966">
        <ele>754.6</ele>
        <time>2014-04-19T16:32:38Z</time>
      </trkpt>
      <trkpt lat="62.4984059" lon="14.1259382">
        <ele>753.8</ele>
        <time>2014-04-19T16:32:42Z</time>
      </trkpt>
      <trkpt lat="62.4983801" lon="14.1257304">
        <ele>753.4</ele>
        <time>2014-04-19T16:32:44Z</time>
      </trkpt>
      <trkpt lat="62.4984271" lon="14.1254631">
        <ele>752.8</ele>
        <time>2014-04-19T16:32:47Z</time>
      </trkpt>
      <trkpt lat="62.4985295" lon="14.1254382">
        <ele>752.2</ele>
        <time>2014-04-19T16:32:50Z</time>
      </trkpt>
      <trkpt lat="62.4985511" lon="14.1254676">
        <ele>751.6</ele>
        <time>2014-04-19T16:32:53Z</time>
      </trkpt>
      <trkpt lat="62.4985315" lon="14.1254942">
        <ele>747.2</ele>
        <time>2014-04-19T16:33:26Z</time>
      </trkpt>
      <trkpt lat="62.4984987" lon="14.125492">
        <ele>747</ele>
        <time>2014-04-19T16:33:28Z</time>
      </trkpt>
      <trkpt lat="62.4984611" lon="14.1255047">
        <ele>746.8</ele>
        <time>2014-04-19T16:33:30Z</time>
      </trkpt>
      <trkpt lat="62.4984451" lon="14.1255219">
        <ele>746.6</ele>
        <time>2014-04-19T16:33:31Z</time>
      </trkpt>
      <trkpt lat="62.4983785" lon="14.1256379">
        <ele>746.2</ele>
        <time>2014-04-19T16:33:36Z</time>
      </trkpt>
      <trkpt lat="62.4983215" lon="14.1257172">
        <ele>745.8</ele>
        <time>2014-04-19T16:33:40Z</time>
      </trkpt>
      <trkpt lat="62.4982529" lon="14.1257829">
        <ele>745.4</ele>
        <time>2014-04-19T16:33:44Z</time>
      </trkpt>
      <trkpt lat="62.498128" lon="14.1258455">
        <ele>745</ele>
        <time>2014-04-19T16:33:49Z</time>
      </trkpt>
      <trkpt lat="62.4979923" lon="14.1259272">
        <ele>744.6</ele>
        <time>2014-04-19T16:33:53Z</time>
      </trkpt>
      <trkpt lat="62.4978485" lon="14.1259879">
        <ele>744.2</ele>
        <time>2014-04-19T16:33:57Z</time>
      </trkpt>
      <trkpt lat="62.4977385" lon="14.1260709">
        <ele>743.8</ele>
        <time>2014-04-19T16:34:00Z</time>
      </trkpt>
      <trkpt lat="62.4976013" lon="14.1263682">
        <ele>743.2</ele>
        <time>2014-04-19T16:34:05Z</time>
      </trkpt>
      <trkpt lat="62.4975531" lon="14.1265793">
        <ele>742.8</ele>
        <time>2014-04-19T16:34:09Z</time>
      </trkpt>
      <trkpt lat="62.4974821" lon="14.1268278">
        <ele>742.4</ele>
        <time>2014-04-19T16:34:14Z</time>
      </trkpt>
      <trkpt lat="62.4974279" lon="14.1270381">
        <ele>741.8</ele>
        <time>2014-04-19T16:34:18Z</time>
      </trkpt>
      <trkpt lat="62.49738" lon="14.1272856">
        <ele>741.4</ele>
        <time>2014-04-19T16:34:23Z</time>
      </trkpt>
      <trkpt lat="62.4973573" lon="14.1274786">
        <ele>741.2</ele>
        <time>2014-04-19T16:34:27Z</time>
      </trkpt>
      <trkpt lat="62.4973446" lon="14.1275575">
        <ele>741</ele>
        <time>2014-04-19T16:34:29Z</time>
      </trkpt>
      <trkpt lat="62.4973227" lon="14.1276601">
        <ele>740.8</ele>
        <time>2014-04-19T16:34:31Z</time>
      </trkpt>
      <trkpt lat="62.4972253" lon="14.1278426">
        <ele>740.4</ele>
        <time>2014-04-19T16:34:36Z</time>
      </trkpt>
      <trkpt lat="62.4971654" lon="14.1278684">
        <ele>740.2</ele>
        <time>2014-04-19T16:34:40Z</time>
      </trkpt>
      <trkpt lat="62.497159" lon="14.1278651">
        <ele>740</ele>
        <time>2014-04-19T16:34:41Z</time>
      </trkpt>
      <trkpt lat="62.4971587" lon="14.1278694">
        <ele>739.6</ele>
        <time>2014-04-19T16:34:53Z</time>
      </trkpt>
      <trkpt lat="62.4971536" lon="14.1278972">
        <ele>739.6</ele>
        <time>2014-04-19T16:35:00Z</time>
      </trkpt>
      <trkpt lat="62.4971025" lon="14.1278721">
        <ele>739.4</ele>
        <time>2014-04-19T16:35:21Z</time>
      </trkpt>
      <trkpt lat="62.4969462" lon="14.1276413">
        <ele>739.2</ele>
        <time>2014-04-19T16:35:26Z</time>
      </trkpt>
      <trkpt lat="62.4968005" lon="14.1276342">
        <ele>739.2</ele>
        <time>2014-04-19T16:35:29Z</time>
      </trkpt>
      <trkpt lat="62.4966675" lon="14.1277454">
        <ele>739</ele>
        <time>2014-04-19T16:35:32Z</time>
      </trkpt>
      <trkpt lat="62.4966377" lon="14.1278143">
        <ele>738.8</ele>
        <time>2014-04-19T16:35:33Z</time>
      </trkpt>
      <trkpt lat="62.4965821" lon="14.127951">
        <ele>738.8</ele>
        <time>2014-04-19T16:35:35Z</time>
      </trkpt>
      <trkpt lat="62.4965492" lon="14.1280755">
        <ele>738.6</ele>
        <time>2014-04-19T16:35:37Z</time>
      </trkpt>
      <trkpt lat="62.4965444" lon="14.1281315">
        <ele>738.6</ele>
        <time>2014-04-19T16:35:38Z</time>
      </trkpt>
      <trkpt lat="62.4964972" lon="14.1283658">
        <ele>738.4</ele>
        <time>2014-04-19T16:35:43Z</time>
      </trkpt>
      <trkpt lat="62.4964558" lon="14.128429">
        <ele>738.2</ele>
        <time>2014-04-19T16:35:45Z</time>
      </trkpt>
      <trkpt lat="62.4964023" lon="14.1284185">
        <ele>738.2</ele>
        <time>2014-04-19T16:35:47Z</time>
      </trkpt>
      <trkpt lat="62.4962888" lon="14.1282318">
        <ele>738</ele>
        <time>2014-04-19T16:35:51Z</time>
      </trkpt>
      <trkpt lat="62.4960786" lon="14.1278429">
        <ele>737.6</ele>
        <time>2014-04-19T16:35:57Z</time>
      </trkpt>
      <trkpt lat="62.4960277" lon="14.1278133">
        <ele>737.6</ele>
        <time>2014-04-19T16:35:58Z</time>
      </trkpt>
      <trkpt lat="62.4959341" lon="14.1278439">
        <ele>737.4</ele>
        <time>2014-04-19T16:36:00Z</time>
      </trkpt>
      <trkpt lat="62.4958168" lon="14.1281215">
        <ele>737</ele>
        <time>2014-04-19T16:36:04Z</time>
      </trkpt>
      <trkpt lat="62.4957195" lon="14.1282691">
        <ele>736.8</ele>
        <time>2014-04-19T16:36:07Z</time>
      </trkpt>
      <trkpt lat="62.4956856" lon="14.1283006">
        <ele>736.6</ele>
        <time>2014-04-19T16:36:08Z</time>
      </trkpt>
      <trkpt lat="62.4955523" lon="14.1284519">
        <ele>736.2</ele>
        <time>2014-04-19T16:36:12Z</time>
      </trkpt>
      <trkpt lat="62.4955248" lon="14.1285062">
        <ele>736.2</ele>
        <time>2014-04-19T16:36:13Z</time>
      </trkpt>
      <trkpt lat="62.4954612" lon="14.1287501">
        <ele>736</ele>
        <time>2014-04-19T16:36:17Z</time>
      </trkpt>
      <trkpt lat="62.4954301" lon="14.1289369">
        <ele>735.8</ele>
        <time>2014-04-19T16:36:21Z</time>
      </trkpt>
      <trkpt lat="62.4953942" lon="14.1291906">
        <ele>735.6</ele>
        <time>2014-04-19T16:36:27Z</time>
      </trkpt>
      <trkpt lat="62.4953685" lon="14.1293861">
        <ele>735.6</ele>
        <time>2014-04-19T16:36:31Z</time>
      </trkpt>
      <trkpt lat="62.4953208" lon="14.1296281">
        <ele>735.6</ele>
        <time>2014-04-19T16:36:36Z</time>
      </trkpt>
      <trkpt lat="62.4952437" lon="14.1299279">
        <ele>735.4</ele>
        <time>2014-04-19T16:36:42Z</time>
      </trkpt>
      <trkpt lat="62.4952069" lon="14.1301231">
        <ele>735.4</ele>
        <time>2014-04-19T16:36:46Z</time>
      </trkpt>
      <trkpt lat="62.4952064" lon="14.1303036">
        <ele>735.8</ele>
        <time>2014-04-19T16:36:51Z</time>
      </trkpt>
      <trkpt lat="62.4951989" lon="14.1303643">
        <ele>736</ele>
        <time>2014-04-19T16:36:53Z</time>
      </trkpt>
      <trkpt lat="62.4951913" lon="14.1303901">
        <ele>736.2</ele>
        <time>2014-04-19T16:36:55Z</time>
      </trkpt>
      <trkpt lat="62.4951849" lon="14.1304291">
        <ele>736.4</ele>
        <time>2014-04-19T16:36:57Z</time>
      </trkpt>
      <trkpt lat="62.495181" lon="14.1304972">
        <ele>736.8</ele>
        <time>2014-04-19T16:37:00Z</time>
      </trkpt>
      <trkpt lat="62.4951815" lon="14.1305191">
        <ele>737</ele>
        <time>2014-04-19T16:37:01Z</time>
      </trkpt>
      <trkpt lat="62.4951723" lon="14.1305979">
        <ele>737.4</ele>
        <time>2014-04-19T16:37:04Z</time>
      </trkpt>
      <trkpt lat="62.4951682" lon="14.1306606">
        <ele>737.4</ele>
        <time>2014-04-19T16:37:06Z</time>
      </trkpt>
      <trkpt lat="62.4951531" lon="14.1307461">
        <ele>737.8</ele>
        <time>2014-04-19T16:37:09Z</time>
      </trkpt>
      <trkpt lat="62.4951329" lon="14.1308015">
        <ele>738.2</ele>
        <time>2014-04-19T16:37:12Z</time>
      </trkpt>
      <trkpt lat="62.4951253" lon="14.130818">
        <ele>738.2</ele>
        <time>2014-04-19T16:37:13Z</time>
      </trkpt>
      <trkpt lat="62.4950793" lon="14.1309375">
        <ele>739</ele>
        <time>2014-04-19T16:37:19Z</time>
      </trkpt>
      <trkpt lat="62.4950318" lon="14.131033">
        <ele>739.4</ele>
        <time>2014-04-19T16:37:23Z</time>
      </trkpt>
      <trkpt lat="62.4949713" lon="14.1311099">
        <ele>740</ele>
        <time>2014-04-19T16:37:27Z</time>
      </trkpt>
      <trkpt lat="62.4949289" lon="14.1311681">
        <ele>740.6</ele>
        <time>2014-04-19T16:37:31Z</time>
      </trkpt>
      <trkpt lat="62.4949066" lon="14.1312074">
        <ele>742.2</ele>
        <time>2014-04-19T16:37:50Z</time>
      </trkpt>
      <trkpt lat="62.4948604" lon="14.1312499">
        <ele>742.4</ele>
        <time>2014-04-19T16:37:55Z</time>
      </trkpt>
      <trkpt lat="62.4947705" lon="14.1312921">
        <ele>742.6</ele>
        <time>2014-04-19T16:37:59Z</time>
      </trkpt>
      <trkpt lat="62.4946704" lon="14.1313094">
        <ele>742.8</ele>
        <time>2014-04-19T16:38:02Z</time>
      </trkpt>
      <trkpt lat="62.4945221" lon="14.1312842">
        <ele>743</ele>
        <time>2014-04-19T16:38:06Z</time>
      </trkpt>
      <trkpt lat="62.4943705" lon="14.1312286">
        <ele>743.2</ele>
        <time>2014-04-19T16:38:10Z</time>
      </trkpt>
      <trkpt lat="62.494278" lon="14.1311656">
        <ele>743.4</ele>
        <time>2014-04-19T16:38:13Z</time>
      </trkpt>
      <trkpt lat="62.4941721" lon="14.1311194">
        <ele>743.4</ele>
        <time>2014-04-19T16:38:16Z</time>
      </trkpt>
      <trkpt lat="62.4940161" lon="14.1311278">
        <ele>743.2</ele>
        <time>2014-04-19T16:38:20Z</time>
      </trkpt>
      <trkpt lat="62.4938948" lon="14.1312714">
        <ele>743</ele>
        <time>2014-04-19T16:38:25Z</time>
      </trkpt>
      <trkpt lat="62.4938481" lon="14.1314375">
        <ele>743</ele>
        <time>2014-04-19T16:38:29Z</time>
      </trkpt>
      <trkpt lat="62.4938303" lon="14.1315061">
        <ele>743</ele>
        <time>2014-04-19T16:38:31Z</time>
      </trkpt>
      <trkpt lat="62.4938167" lon="14.1315755">
        <ele>743</ele>
        <time>2014-04-19T16:38:33Z</time>
      </trkpt>
      <trkpt lat="62.4938119" lon="14.1316505">
        <ele>743</ele>
        <time>2014-04-19T16:38:35Z</time>
      </trkpt>
      <trkpt lat="62.4938018" lon="14.131726">
        <ele>743</ele>
        <time>2014-04-19T16:38:37Z</time>
      </trkpt>
      <trkpt lat="62.4937817" lon="14.1318533">
        <ele>743.2</ele>
        <time>2014-04-19T16:38:42Z</time>
      </trkpt>
      <trkpt lat="62.4937655" lon="14.1320153">
        <ele>743.2</ele>
        <time>2014-04-19T16:38:47Z</time>
      </trkpt>
      <trkpt lat="62.4937573" lon="14.1321897">
        <ele>743.2</ele>
        <time>2014-04-19T16:38:52Z</time>
      </trkpt>
      <trkpt lat="62.4937039" lon="14.1323823">
        <ele>743.4</ele>
        <time>2014-04-19T16:38:57Z</time>
      </trkpt>
      <trkpt lat="62.4936171" lon="14.1325507">
        <ele>743.6</ele>
        <time>2014-04-19T16:39:02Z</time>
      </trkpt>
      <trkpt lat="62.493522" lon="14.1326902">
        <ele>743.6</ele>
        <time>2014-04-19T16:39:06Z</time>
      </trkpt>
      <trkpt lat="62.493393" lon="14.1328034">
        <ele>743.6</ele>
        <time>2014-04-19T16:39:10Z</time>
      </trkpt>
      <trkpt lat="62.4933013" lon="14.1329833">
        <ele>743.6</ele>
        <time>2014-04-19T16:39:14Z</time>
      </trkpt>
      <trkpt lat="62.4932856" lon="14.1330284">
        <ele>743.6</ele>
        <time>2014-04-19T16:39:15Z</time>
      </trkpt>
      <trkpt lat="62.4932307" lon="14.133177">
        <ele>743.6</ele>
        <time>2014-04-19T16:39:18Z</time>
      </trkpt>
      <trkpt lat="62.4931642" lon="14.1333507">
        <ele>743.4</ele>
        <time>2014-04-19T16:39:22Z</time>
      </trkpt>
      <trkpt lat="62.493077" lon="14.1335158">
        <ele>743.4</ele>
        <time>2014-04-19T16:39:26Z</time>
      </trkpt>
      <trkpt lat="62.4929925" lon="14.1337312">
        <ele>743.2</ele>
        <time>2014-04-19T16:39:30Z</time>
      </trkpt>
      <trkpt lat="62.4928914" lon="14.1338491">
        <ele>743.2</ele>
        <time>2014-04-19T16:39:35Z</time>
      </trkpt>
      <trkpt lat="62.4928377" lon="14.1340084">
        <ele>743.2</ele>
        <time>2014-04-19T16:39:39Z</time>
      </trkpt>
      <trkpt lat="62.4928488" lon="14.1342315">
        <ele>743.2</ele>
        <time>2014-04-19T16:39:44Z</time>
      </trkpt>
      <trkpt lat="62.4928603" lon="14.1342693">
        <ele>743.4</ele>
        <time>2014-04-19T16:39:45Z</time>
      </trkpt>
      <trkpt lat="62.4929098" lon="14.1343384">
        <ele>743.4</ele>
        <time>2014-04-19T16:39:48Z</time>
      </trkpt>
      <trkpt lat="62.4929809" lon="14.1343262">
        <ele>743.8</ele>
        <time>2014-04-19T16:39:52Z</time>
      </trkpt>
      <trkpt lat="62.4930548" lon="14.1341897">
        <ele>744</ele>
        <time>2014-04-19T16:39:56Z</time>
      </trkpt>
      <trkpt lat="62.4930825" lon="14.134154">
        <ele>744.2</ele>
        <time>2014-04-19T16:39:57Z</time>
      </trkpt>
      <trkpt lat="62.4931783" lon="14.1340966">
        <ele>744.4</ele>
        <time>2014-04-19T16:40:01Z</time>
      </trkpt>
      <trkpt lat="62.4933084" lon="14.1340815">
        <ele>744.8</ele>
        <time>2014-04-19T16:40:07Z</time>
      </trkpt>
      <trkpt lat="62.4933329" lon="14.1340615">
        <ele>744.8</ele>
        <time>2014-04-19T16:40:08Z</time>
      </trkpt>
      <trkpt lat="62.4934089" lon="14.1340203">
        <ele>745.2</ele>
        <time>2014-04-19T16:40:12Z</time>
      </trkpt>
      <trkpt lat="62.4934909" lon="14.134067">
        <ele>745.6</ele>
        <time>2014-04-19T16:40:18Z</time>
      </trkpt>
      <trkpt lat="62.4935304" lon="14.1341095">
        <ele>746</ele>
        <time>2014-04-19T16:40:23Z</time>
      </trkpt>
      <trkpt lat="62.4935642" lon="14.1341233">
        <ele>747.6</ele>
        <time>2014-04-19T16:40:43Z</time>
      </trkpt>
      <trkpt lat="62.4935777" lon="14.1341217">
        <ele>748</ele>
        <time>2014-04-19T16:40:48Z</time>
      </trkpt>
      <trkpt lat="62.4936007" lon="14.1340768">
        <ele>748.6</ele>
        <time>2014-04-19T16:40:57Z</time>
      </trkpt>
      <trkpt lat="62.4936302" lon="14.1340698">
        <ele>748.8</ele>
        <time>2014-04-19T16:41:03Z</time>
      </trkpt>
      <trkpt lat="62.4936446" lon="14.1340716">
        <ele>749.2</ele>
        <time>2014-04-19T16:41:08Z</time>
      </trkpt>
      <trkpt lat="62.4936967" lon="14.1340335">
        <ele>749.4</ele>
        <time>2014-04-19T16:41:16Z</time>
      </trkpt>
      <trkpt lat="62.4937834" lon="14.1340209">
        <ele>749.6</ele>
        <time>2014-04-19T16:41:22Z</time>
      </trkpt>
      <trkpt lat="62.4939077" lon="14.1340632">
        <ele>750</ele>
        <time>2014-04-19T16:41:29Z</time>
      </trkpt>
      <trkpt lat="62.4939688" lon="14.1340953">
        <ele>750</ele>
        <time>2014-04-19T16:41:32Z</time>
      </trkpt>
      <trkpt lat="62.494027" lon="14.1341146">
        <ele>750</ele>
        <time>2014-04-19T16:41:35Z</time>
      </trkpt>
      <trkpt lat="62.4940604" lon="14.1341263">
        <ele>750</ele>
        <time>2014-04-19T16:41:37Z</time>
      </trkpt>
      <trkpt lat="62.4941308" lon="14.1341957">
        <ele>750</ele>
        <time>2014-04-19T16:41:42Z</time>
      </trkpt>
      <trkpt lat="62.4942087" lon="14.1342994">
        <ele>750</ele>
        <time>2014-04-19T16:41:47Z</time>
      </trkpt>
      <trkpt lat="62.4942202" lon="14.1343287">
        <ele>750</ele>
        <time>2014-04-19T16:41:48Z</time>
      </trkpt>
      <trkpt lat="62.4942278" lon="14.1343571">
        <ele>750</ele>
        <time>2014-04-19T16:41:49Z</time>
      </trkpt>
      <trkpt lat="62.4942615" lon="14.1344301">
        <ele>750.2</ele>
        <time>2014-04-19T16:41:52Z</time>
      </trkpt>
      <trkpt lat="62.4942956" lon="14.1345104">
        <ele>750.4</ele>
        <time>2014-04-19T16:41:55Z</time>
      </trkpt>
      <trkpt lat="62.4943211" lon="14.1345688">
        <ele>750.6</ele>
        <time>2014-04-19T16:41:58Z</time>
      </trkpt>
      <trkpt lat="62.494332" lon="14.1345903">
        <ele>750.6</ele>
        <time>2014-04-19T16:41:59Z</time>
      </trkpt>
      <trkpt lat="62.4943524" lon="14.1346231">
        <ele>751</ele>
        <time>2014-04-19T16:42:01Z</time>
      </trkpt>
      <trkpt lat="62.4943833" lon="14.1346796">
        <ele>751.4</ele>
        <time>2014-04-19T16:42:04Z</time>
      </trkpt>
      <trkpt lat="62.4944282" lon="14.1347304">
        <ele>752</ele>
        <time>2014-04-19T16:42:08Z</time>
      </trkpt>
      <trkpt lat="62.4944392" lon="14.1347345">
        <ele>752.2</ele>
        <time>2014-04-19T16:42:09Z</time>
      </trkpt>
      <trkpt lat="62.4944455" lon="14.1347345">
        <ele>752.4</ele>
        <time>2014-04-19T16:42:10Z</time>
      </trkpt>
      <trkpt lat="62.4944519" lon="14.1347399">
        <ele>752.6</ele>
        <time>2014-04-19T16:42:11Z</time>
      </trkpt>
      <trkpt lat="62.4944793" lon="14.134754">
        <ele>753.4</ele>
        <time>2014-04-19T16:42:15Z</time>
      </trkpt>
      <trkpt lat="62.4944849" lon="14.1347687">
        <ele>753.6</ele>
        <time>2014-04-19T16:42:16Z</time>
      </trkpt>
      <trkpt lat="62.4944962" lon="14.134877">
        <ele>754.2</ele>
        <time>2014-04-19T16:42:19Z</time>
      </trkpt>
      <trkpt lat="62.4944981" lon="14.1349315">
        <ele>754.4</ele>
        <time>2014-04-19T16:42:20Z</time>
      </trkpt>
      <trkpt lat="62.4945059" lon="14.1350745">
        <ele>755.4</ele>
        <time>2014-04-19T16:42:24Z</time>
      </trkpt>
      <trkpt lat="62.4945469" lon="14.1350312">
        <ele>756.2</ele>
        <time>2014-04-19T16:42:29Z</time>
      </trkpt>
      <trkpt lat="62.4945792" lon="14.1349803">
        <ele>756.6</ele>
        <time>2014-04-19T16:42:32Z</time>
      </trkpt>
      <trkpt lat="62.4945993" lon="14.1349767">
        <ele>757</ele>
        <time>2014-04-19T16:42:34Z</time>
      </trkpt>
      <trkpt lat="62.4946277" lon="14.1350075">
        <ele>757.6</ele>
        <time>2014-04-19T16:42:39Z</time>
      </trkpt>
      <trkpt lat="62.4946612" lon="14.1350637">
        <ele>758.2</ele>
        <time>2014-04-19T16:42:43Z</time>
      </trkpt>
      <trkpt lat="62.4946688" lon="14.1350735">
        <ele>758.4</ele>
        <time>2014-04-19T16:42:44Z</time>
      </trkpt>
      <trkpt lat="62.4947188" lon="14.1351409">
        <ele>759</ele>
        <time>2014-04-19T16:42:49Z</time>
      </trkpt>
      <trkpt lat="62.4947626" lon="14.1351837">
        <ele>759.6</ele>
        <time>2014-04-19T16:42:53Z</time>
      </trkpt>
      <trkpt lat="62.4947891" lon="14.1352016">
        <ele>759.8</ele>
        <time>2014-04-19T16:42:55Z</time>
      </trkpt>
      <trkpt lat="62.4947998" lon="14.1352067">
        <ele>760</ele>
        <time>2014-04-19T16:42:56Z</time>
      </trkpt>
      <trkpt lat="62.4948859" lon="14.1352728">
        <ele>760.6</ele>
        <time>2014-04-19T16:43:02Z</time>
      </trkpt>
      <trkpt lat="62.49498" lon="14.1353846">
        <ele>760.8</ele>
        <time>2014-04-19T16:43:07Z</time>
      </trkpt>
      <trkpt lat="62.4950855" lon="14.1354583">
        <ele>761.2</ele>
        <time>2014-04-19T16:43:11Z</time>
      </trkpt>
      <trkpt lat="62.4951763" lon="14.1355823">
        <ele>761.6</ele>
        <time>2014-04-19T16:43:15Z</time>
      </trkpt>
      <trkpt lat="62.4952697" lon="14.1358416">
        <ele>762.6</ele>
        <time>2014-04-19T16:43:21Z</time>
      </trkpt>
      <trkpt lat="62.4953592" lon="14.1360681">
        <ele>763.6</ele>
        <time>2014-04-19T16:43:26Z</time>
      </trkpt>
      <trkpt lat="62.495359" lon="14.1361046">
        <ele>763.8</ele>
        <time>2014-04-19T16:43:27Z</time>
      </trkpt>
      <trkpt lat="62.495341" lon="14.1361863">
        <ele>764.4</ele>
        <time>2014-04-19T16:43:30Z</time>
      </trkpt>
      <trkpt lat="62.4953331" lon="14.1362162">
        <ele>764.6</ele>
        <time>2014-04-19T16:43:31Z</time>
      </trkpt>
      <trkpt lat="62.4953216" lon="14.1362877">
        <ele>765</ele>
        <time>2014-04-19T16:43:34Z</time>
      </trkpt>
      <trkpt lat="62.4953164" lon="14.1363136">
        <ele>765.2</ele>
        <time>2014-04-19T16:43:35Z</time>
      </trkpt>
      <trkpt lat="62.4952655" lon="14.1364986">
        <ele>766.2</ele>
        <time>2014-04-19T16:43:42Z</time>
      </trkpt>
      <trkpt lat="62.4952365" lon="14.1365824">
        <ele>766.4</ele>
        <time>2014-04-19T16:43:44Z</time>
      </trkpt>
      <trkpt lat="62.4952126" lon="14.1366959">
        <ele>766.8</ele>
        <time>2014-04-19T16:43:47Z</time>
      </trkpt>
      <trkpt lat="62.4952003" lon="14.1369229">
        <ele>767.6</ele>
        <time>2014-04-19T16:43:52Z</time>
      </trkpt>
      <trkpt lat="62.4951986" lon="14.1371702">
        <ele>768.4</ele>
        <time>2014-04-19T16:43:57Z</time>
      </trkpt>
      <trkpt lat="62.4952082" lon="14.1373044">
        <ele>768.8</ele>
        <time>2014-04-19T16:44:00Z</time>
      </trkpt>
      <trkpt lat="62.4952171" lon="14.1373944">
        <ele>769</ele>
        <time>2014-04-19T16:44:02Z</time>
      </trkpt>
      <trkpt lat="62.4952249" lon="14.1374336">
        <ele>769.2</ele>
        <time>2014-04-19T16:44:03Z</time>
      </trkpt>
      <trkpt lat="62.4952456" lon="14.137662">
        <ele>769.6</ele>
        <time>2014-04-19T16:44:08Z</time>
      </trkpt>
      <trkpt lat="62.4951988" lon="14.1378918">
        <ele>770.4</ele>
        <time>2014-04-19T16:44:14Z</time>
      </trkpt>
      <trkpt lat="62.4951425" lon="14.1381465">
        <ele>771.2</ele>
        <time>2014-04-19T16:44:20Z</time>
      </trkpt>
      <trkpt lat="62.4951385" lon="14.1381823">
        <ele>771.4</ele>
        <time>2014-04-19T16:44:21Z</time>
      </trkpt>
      <trkpt lat="62.4951178" lon="14.138315">
        <ele>771.8</ele>
        <time>2014-04-19T16:44:24Z</time>
      </trkpt>
      <trkpt lat="62.4951176" lon="14.1385132">
        <ele>772.4</ele>
        <time>2014-04-19T16:44:28Z</time>
      </trkpt>
      <trkpt lat="62.4951525" lon="14.1389218">
        <ele>773.4</ele>
        <time>2014-04-19T16:44:35Z</time>
      </trkpt>
      <trkpt lat="62.4951682" lon="14.1391753">
        <ele>774.4</ele>
        <time>2014-04-19T16:44:40Z</time>
      </trkpt>
      <trkpt lat="62.495168" lon="14.139432">
        <ele>775.4</ele>
        <time>2014-04-19T16:44:45Z</time>
      </trkpt>
      <trkpt lat="62.4951719" lon="14.1397468">
        <ele>776.6</ele>
        <time>2014-04-19T16:44:51Z</time>
      </trkpt>
      <trkpt lat="62.4951607" lon="14.1399207">
        <ele>777.6</ele>
        <time>2014-04-19T16:44:55Z</time>
      </trkpt>
      <trkpt lat="62.4951613" lon="14.1399536">
        <ele>777.8</ele>
        <time>2014-04-19T16:44:56Z</time>
      </trkpt>
      <trkpt lat="62.4951607" lon="14.1400872">
        <ele>779</ele>
        <time>2014-04-19T16:45:00Z</time>
      </trkpt>
      <trkpt lat="62.495166" lon="14.1401422">
        <ele>779.4</ele>
        <time>2014-04-19T16:45:02Z</time>
      </trkpt>
      <trkpt lat="62.4951529" lon="14.1402143">
        <ele>780.4</ele>
        <time>2014-04-19T16:45:07Z</time>
      </trkpt>
      <trkpt lat="62.495123" lon="14.1400946">
        <ele>781.2</ele>
        <time>2014-04-19T16:45:12Z</time>
      </trkpt>
      <trkpt lat="62.495123" lon="14.1400463">
        <ele>781.4</ele>
        <time>2014-04-19T16:45:13Z</time>
      </trkpt>
      <trkpt lat="62.4951236" lon="14.1398061">
        <ele>781.6</ele>
        <time>2014-04-19T16:45:17Z</time>
      </trkpt>
      <trkpt lat="62.4951396" lon="14.1393771">
        <ele>781.4</ele>
        <time>2014-04-19T16:45:22Z</time>
      </trkpt>
      <trkpt lat="62.4951057" lon="14.1387842">
        <ele>781.4</ele>
        <time>2014-04-19T16:45:28Z</time>
      </trkpt>
      <trkpt lat="62.4951007" lon="14.1386917">
        <ele>781.2</ele>
        <time>2014-04-19T16:45:30Z</time>
      </trkpt>
      <trkpt lat="62.4951026" lon="14.1386839">
        <ele>781.2</ele>
        <time>2014-04-19T16:45:32Z</time>
      </trkpt>
      <trkpt lat="62.4950968" lon="14.13869">
        <ele>781</ele>
        <time>2014-04-19T16:45:35Z</time>
      </trkpt>
      <trkpt lat="62.4950931" lon="14.138726">
        <ele>780.4</ele>
        <time>2014-04-19T16:46:05Z</time>
      </trkpt>
      <trkpt lat="62.4950955" lon="14.138786">
        <ele>780.2</ele>
        <time>2014-04-19T16:46:08Z</time>
      </trkpt>
      <trkpt lat="62.4951174" lon="14.1390915">
        <ele>780.2</ele>
        <time>2014-04-19T16:46:13Z</time>
      </trkpt>
      <trkpt lat="62.4951438" lon="14.1394192">
        <ele>780</ele>
        <time>2014-04-19T16:46:18Z</time>
      </trkpt>
      <trkpt lat="62.4951458" lon="14.1397879">
        <ele>779.8</ele>
        <time>2014-04-19T16:46:23Z</time>
      </trkpt>
      <trkpt lat="62.4951385" lon="14.14003">
        <ele>779.8</ele>
        <time>2014-04-19T16:46:27Z</time>
      </trkpt>
      <trkpt lat="62.4951848" lon="14.1402342">
        <ele>779.8</ele>
        <time>2014-04-19T16:46:31Z</time>
      </trkpt>
      <trkpt lat="62.4952629" lon="14.1403648">
        <ele>779.8</ele>
        <time>2014-04-19T16:46:36Z</time>
      </trkpt>
      <trkpt lat="62.495325" lon="14.1404164">
        <ele>780</ele>
        <time>2014-04-19T16:46:40Z</time>
      </trkpt>
      <trkpt lat="62.495383" lon="14.1405042">
        <ele>780.2</ele>
        <time>2014-04-19T16:46:44Z</time>
      </trkpt>
      <trkpt lat="62.4953928" lon="14.1405347">
        <ele>780.2</ele>
        <time>2014-04-19T16:46:45Z</time>
      </trkpt>
      <trkpt lat="62.4954099" lon="14.140685">
        <ele>780.4</ele>
        <time>2014-04-19T16:46:50Z</time>
      </trkpt>
      <trkpt lat="62.4954008" lon="14.140789">
        <ele>780.8</ele>
        <time>2014-04-19T16:46:54Z</time>
      </trkpt>
      <trkpt lat="62.4953913" lon="14.1408337">
        <ele>780.8</ele>
        <time>2014-04-19T16:46:56Z</time>
      </trkpt>
      <trkpt lat="62.4953733" lon="14.1409261">
        <ele>781.4</ele>
        <time>2014-04-19T16:47:00Z</time>
      </trkpt>
      <trkpt lat="62.4953726" lon="14.1409816">
        <ele>781.6</ele>
        <time>2014-04-19T16:47:02Z</time>
      </trkpt>
      <trkpt lat="62.49537" lon="14.1411094">
        <ele>782</ele>
        <time>2014-04-19T16:47:05Z</time>
      </trkpt>
      <trkpt lat="62.4953726" lon="14.1411682">
        <ele>782</ele>
        <time>2014-04-19T16:47:06Z</time>
      </trkpt>
      <trkpt lat="62.495397" lon="14.1413776">
        <ele>782.8</ele>
        <time>2014-04-19T16:47:10Z</time>
      </trkpt>
      <trkpt lat="62.4954141" lon="14.1415617">
        <ele>783.8</ele>
        <time>2014-04-19T16:47:14Z</time>
      </trkpt>
      <trkpt lat="62.4954184" lon="14.141834">
        <ele>784.8</ele>
        <time>2014-04-19T16:47:19Z</time>
      </trkpt>
      <trkpt lat="62.4954185" lon="14.1418849">
        <ele>785</ele>
        <time>2014-04-19T16:47:20Z</time>
      </trkpt>
      <trkpt lat="62.495412" lon="14.1421519">
        <ele>786.2</ele>
        <time>2014-04-19T16:47:25Z</time>
      </trkpt>
      <trkpt lat="62.4954032" lon="14.1423553">
        <ele>787</ele>
        <time>2014-04-19T16:47:29Z</time>
      </trkpt>
      <trkpt lat="62.495403" lon="14.1425425">
        <ele>788</ele>
        <time>2014-04-19T16:47:33Z</time>
      </trkpt>
      <trkpt lat="62.4954082" lon="14.1428087">
        <ele>789</ele>
        <time>2014-04-19T16:47:38Z</time>
      </trkpt>
      <trkpt lat="62.4954224" lon="14.1431386">
        <ele>789.6</ele>
        <time>2014-04-19T16:47:43Z</time>
      </trkpt>
      <trkpt lat="62.4954377" lon="14.1433658">
        <ele>790</ele>
        <time>2014-04-19T16:47:47Z</time>
      </trkpt>
      <trkpt lat="62.4954439" lon="14.1436227">
        <ele>790.8</ele>
        <time>2014-04-19T16:47:52Z</time>
      </trkpt>
      <trkpt lat="62.4954637" lon="14.1438276">
        <ele>791.2</ele>
        <time>2014-04-19T16:47:56Z</time>
      </trkpt>
      <trkpt lat="62.4954682" lon="14.1438781">
        <ele>791.4</ele>
        <time>2014-04-19T16:47:57Z</time>
      </trkpt>
      <trkpt lat="62.4955078" lon="14.1440345">
        <ele>791.8</ele>
        <time>2014-04-19T16:48:01Z</time>
      </trkpt>
      <trkpt lat="62.4955218" lon="14.1441079">
        <ele>792</ele>
        <time>2014-04-19T16:48:03Z</time>
      </trkpt>
      <trkpt lat="62.4955307" lon="14.1441765">
        <ele>792.4</ele>
        <time>2014-04-19T16:48:05Z</time>
      </trkpt>
      <trkpt lat="62.4955255" lon="14.14424">
        <ele>792.8</ele>
        <time>2014-04-19T16:48:08Z</time>
      </trkpt>
      <trkpt lat="62.4955001" lon="14.1441982">
        <ele>793.2</ele>
        <time>2014-04-19T16:48:12Z</time>
      </trkpt>
      <trkpt lat="62.495476" lon="14.1440431">
        <ele>793.4</ele>
        <time>2014-04-19T16:48:16Z</time>
      </trkpt>
      <trkpt lat="62.4954665" lon="14.1439865">
        <ele>793.4</ele>
        <time>2014-04-19T16:48:17Z</time>
      </trkpt>
      <trkpt lat="62.4954261" lon="14.1437821">
        <ele>793.4</ele>
        <time>2014-04-19T16:48:20Z</time>
      </trkpt>
      <trkpt lat="62.4954092" lon="14.1434715">
        <ele>793.4</ele>
        <time>2014-04-19T16:48:24Z</time>
      </trkpt>
      <trkpt lat="62.4953879" lon="14.1431082">
        <ele>793.4</ele>
        <time>2014-04-19T16:48:28Z</time>
      </trkpt>
      <trkpt lat="62.4953841" lon="14.1427493">
        <ele>793.2</ele>
        <time>2014-04-19T16:48:32Z</time>
      </trkpt>
      <trkpt lat="62.4953757" lon="14.1423957">
        <ele>793</ele>
        <time>2014-04-19T16:48:37Z</time>
      </trkpt>
      <trkpt lat="62.4953771" lon="14.142365">
        <ele>793</ele>
        <time>2014-04-19T16:48:38Z</time>
      </trkpt>
      <trkpt lat="62.4953861" lon="14.1423767">
        <ele>793</ele>
        <time>2014-04-19T16:48:40Z</time>
      </trkpt>
      <trkpt lat="62.4953896" lon="14.1425186">
        <ele>792.8</ele>
        <time>2014-04-19T16:48:44Z</time>
      </trkpt>
      <trkpt lat="62.495413" lon="14.1427156">
        <ele>792.8</ele>
        <time>2014-04-19T16:48:48Z</time>
      </trkpt>
      <trkpt lat="62.4954271" lon="14.1429976">
        <ele>792.8</ele>
        <time>2014-04-19T16:48:52Z</time>
      </trkpt>
      <trkpt lat="62.4954495" lon="14.1433242">
        <ele>793</ele>
        <time>2014-04-19T16:48:57Z</time>
      </trkpt>
      <trkpt lat="62.4954478" lon="14.1435507">
        <ele>793.4</ele>
        <time>2014-04-19T16:49:01Z</time>
      </trkpt>
      <trkpt lat="62.4954667" lon="14.1437737">
        <ele>793.6</ele>
        <time>2014-04-19T16:49:05Z</time>
      </trkpt>
      <trkpt lat="62.4955228" lon="14.1440331">
        <ele>794.2</ele>
        <time>2014-04-19T16:49:10Z</time>
      </trkpt>
      <trkpt lat="62.495563" lon="14.1442467">
        <ele>794.6</ele>
        <time>2014-04-19T16:49:14Z</time>
      </trkpt>
      <trkpt lat="62.4955938" lon="14.1445038">
        <ele>795</ele>
        <time>2014-04-19T16:49:18Z</time>
      </trkpt>
      <trkpt lat="62.4956788" lon="14.1448796">
        <ele>795.4</ele>
        <time>2014-04-19T16:49:23Z</time>
      </trkpt>
      <trkpt lat="62.4957595" lon="14.1451724">
        <ele>795.6</ele>
        <time>2014-04-19T16:49:27Z</time>
      </trkpt>
      <trkpt lat="62.4958155" lon="14.1454689">
        <ele>795.8</ele>
        <time>2014-04-19T16:49:31Z</time>
      </trkpt>
      <trkpt lat="62.4958423" lon="14.1458058">
        <ele>796</ele>
        <time>2014-04-19T16:49:35Z</time>
      </trkpt>
      <trkpt lat="62.4958486" lon="14.1461428">
        <ele>796.2</ele>
        <time>2014-04-19T16:49:39Z</time>
      </trkpt>
      <trkpt lat="62.4958275" lon="14.1465572">
        <ele>796</ele>
        <time>2014-04-19T16:49:44Z</time>
      </trkpt>
      <trkpt lat="62.4958425" lon="14.1468615">
        <ele>796.2</ele>
        <time>2014-04-19T16:49:48Z</time>
      </trkpt>
      <trkpt lat="62.4958803" lon="14.1471704">
        <ele>796</ele>
        <time>2014-04-19T16:49:52Z</time>
      </trkpt>
      <trkpt lat="62.4958912" lon="14.1475741">
        <ele>796</ele>
        <time>2014-04-19T16:49:57Z</time>
      </trkpt>
      <trkpt lat="62.4959309" lon="14.1478795">
        <ele>795.8</ele>
        <time>2014-04-19T16:50:01Z</time>
      </trkpt>
      <trkpt lat="62.4960154" lon="14.1482464">
        <ele>795.6</ele>
        <time>2014-04-19T16:50:06Z</time>
      </trkpt>
      <trkpt lat="62.4960443" lon="14.1485906">
        <ele>795.6</ele>
        <time>2014-04-19T16:50:11Z</time>
      </trkpt>
      <trkpt lat="62.4960124" lon="14.1489565">
        <ele>795.4</ele>
        <time>2014-04-19T16:50:16Z</time>
      </trkpt>
      <trkpt lat="62.4959457" lon="14.1491395">
        <ele>795.2</ele>
        <time>2014-04-19T16:50:20Z</time>
      </trkpt>
      <trkpt lat="62.4958936" lon="14.1493435">
        <ele>795</ele>
        <time>2014-04-19T16:50:24Z</time>
      </trkpt>
      <trkpt lat="62.4958522" lon="14.149603">
        <ele>795</ele>
        <time>2014-04-19T16:50:28Z</time>
      </trkpt>
      <trkpt lat="62.495837" lon="14.1499577">
        <ele>794.8</ele>
        <time>2014-04-19T16:50:34Z</time>
      </trkpt>
      <trkpt lat="62.4958347" lon="14.1502348">
        <ele>794.8</ele>
        <time>2014-04-19T16:50:38Z</time>
      </trkpt>
      <trkpt lat="62.4958628" lon="14.1505428">
        <ele>794.8</ele>
        <time>2014-04-19T16:50:43Z</time>
      </trkpt>
      <trkpt lat="62.495937" lon="14.1508282">
        <ele>794.8</ele>
        <time>2014-04-19T16:50:47Z</time>
      </trkpt>
      <trkpt lat="62.4960074" lon="14.1511981">
        <ele>794.8</ele>
        <time>2014-04-19T16:50:51Z</time>
      </trkpt>
      <trkpt lat="62.4960626" lon="14.1515938">
        <ele>794.6</ele>
        <time>2014-04-19T16:50:55Z</time>
      </trkpt>
      <trkpt lat="62.4960845" lon="14.1517626">
        <ele>794.6</ele>
        <time>2014-04-19T16:50:57Z</time>
      </trkpt>
      <trkpt lat="62.4960979" lon="14.1519342">
        <ele>794.6</ele>
        <time>2014-04-19T16:50:59Z</time>
      </trkpt>
      <trkpt lat="62.4960995" lon="14.1521677">
        <ele>794.4</ele>
        <time>2014-04-19T16:51:02Z</time>
      </trkpt>
      <trkpt lat="62.4961016" lon="14.1522224">
        <ele>794.4</ele>
        <time>2014-04-19T16:51:03Z</time>
      </trkpt>
      <trkpt lat="62.4961262" lon="14.1524022">
        <ele>794.4</ele>
        <time>2014-04-19T16:51:06Z</time>
      </trkpt>
      <trkpt lat="62.4961848" lon="14.1526531">
        <ele>794.4</ele>
        <time>2014-04-19T16:51:10Z</time>
      </trkpt>
      <trkpt lat="62.4962264" lon="14.1529153">
        <ele>794.2</ele>
        <time>2014-04-19T16:51:14Z</time>
      </trkpt>
      <trkpt lat="62.4962408" lon="14.1531956">
        <ele>794.2</ele>
        <time>2014-04-19T16:51:18Z</time>
      </trkpt>
      <trkpt lat="62.496245" lon="14.1534618">
        <ele>794.2</ele>
        <time>2014-04-19T16:51:23Z</time>
      </trkpt>
      <trkpt lat="62.4962217" lon="14.1534578">
        <ele>794.4</ele>
        <time>2014-04-19T16:51:26Z</time>
      </trkpt>
      <trkpt lat="62.496237" lon="14.1533008">
        <ele>794.4</ele>
        <time>2014-04-19T16:51:30Z</time>
      </trkpt>
      <trkpt lat="62.4962351" lon="14.1531308">
        <ele>794.4</ele>
        <time>2014-04-19T16:51:34Z</time>
      </trkpt>
      <trkpt lat="62.4962119" lon="14.1529466">
        <ele>794.6</ele>
        <time>2014-04-19T16:51:38Z</time>
      </trkpt>
      <trkpt lat="62.496189" lon="14.1527916">
        <ele>794.6</ele>
        <time>2014-04-19T16:51:41Z</time>
      </trkpt>
      <trkpt lat="62.4961346" lon="14.152593">
        <ele>794.6</ele>
        <time>2014-04-19T16:51:45Z</time>
      </trkpt>
      <trkpt lat="62.4960835" lon="14.1523281">
        <ele>794.8</ele>
        <time>2014-04-19T16:51:50Z</time>
      </trkpt>
      <trkpt lat="62.4960657" lon="14.1520473">
        <ele>794.8</ele>
        <time>2014-04-19T16:51:55Z</time>
      </trkpt>
      <trkpt lat="62.4960504" lon="14.1517545">
        <ele>794.8</ele>
        <time>2014-04-19T16:52:01Z</time>
      </trkpt>
      <trkpt lat="62.4960578" lon="14.1517434">
        <ele>794.8</ele>
        <time>2014-04-19T16:52:02Z</time>
      </trkpt>
      <trkpt lat="62.4960873" lon="14.1518487">
        <ele>795</ele>
        <time>2014-04-19T16:52:06Z</time>
      </trkpt>
      <trkpt lat="62.4961002" lon="14.1519579">
        <ele>795</ele>
        <time>2014-04-19T16:52:08Z</time>
      </trkpt>
      <trkpt lat="62.4961031" lon="14.1520704">
        <ele>795</ele>
        <time>2014-04-19T16:52:10Z</time>
      </trkpt>
      <trkpt lat="62.4961316" lon="14.1522933">
        <ele>795</ele>
        <time>2014-04-19T16:52:14Z</time>
      </trkpt>
      <trkpt lat="62.4961838" lon="14.152496">
        <ele>795</ele>
        <time>2014-04-19T16:52:18Z</time>
      </trkpt>
      <trkpt lat="62.4962538" lon="14.1527676">
        <ele>795.2</ele>
        <time>2014-04-19T16:52:22Z</time>
      </trkpt>
      <trkpt lat="62.4962895" lon="14.1530665">
        <ele>795</ele>
        <time>2014-04-19T16:52:26Z</time>
      </trkpt>
      <trkpt lat="62.4963112" lon="14.1533328">
        <ele>795</ele>
        <time>2014-04-19T16:52:30Z</time>
      </trkpt>
      <trkpt lat="62.496275" lon="14.1534949">
        <ele>795</ele>
        <time>2014-04-19T16:52:33Z</time>
      </trkpt>
      <trkpt lat="62.4962474" lon="14.1535306">
        <ele>795</ele>
        <time>2014-04-19T16:52:34Z</time>
      </trkpt>
      <trkpt lat="62.4961326" lon="14.1536965">
        <ele>795</ele>
        <time>2014-04-19T16:52:38Z</time>
      </trkpt>
      <trkpt lat="62.4960208" lon="14.1539666">
        <ele>794.8</ele>
        <time>2014-04-19T16:52:43Z</time>
      </trkpt>
      <trkpt lat="62.4959255" lon="14.1542113">
        <ele>794.8</ele>
        <time>2014-04-19T16:52:48Z</time>
      </trkpt>
      <trkpt lat="62.4958198" lon="14.1543804">
        <ele>794.8</ele>
        <time>2014-04-19T16:52:53Z</time>
      </trkpt>
      <trkpt lat="62.4957456" lon="14.1545536">
        <ele>795</ele>
        <time>2014-04-19T16:52:58Z</time>
      </trkpt>
      <trkpt lat="62.4957331" lon="14.1545863">
        <ele>795</ele>
        <time>2014-04-19T16:52:59Z</time>
      </trkpt>
      <trkpt lat="62.4956805" lon="14.1546833">
        <ele>795.6</ele>
        <time>2014-04-19T16:53:02Z</time>
      </trkpt>
      <trkpt lat="62.4955968" lon="14.1548258">
        <ele>796</ele>
        <time>2014-04-19T16:53:06Z</time>
      </trkpt>
      <trkpt lat="62.4955016" lon="14.1549596">
        <ele>796.2</ele>
        <time>2014-04-19T16:53:10Z</time>
      </trkpt>
      <trkpt lat="62.4954224" lon="14.1550782">
        <ele>796.6</ele>
        <time>2014-04-19T16:53:14Z</time>
      </trkpt>
      <trkpt lat="62.4953617" lon="14.1552375">
        <ele>796.8</ele>
        <time>2014-04-19T16:53:18Z</time>
      </trkpt>
      <trkpt lat="62.4953079" lon="14.1554688">
        <ele>797</ele>
        <time>2014-04-19T16:53:24Z</time>
      </trkpt>
      <trkpt lat="62.4952794" lon="14.1558295">
        <ele>797</ele>
        <time>2014-04-19T16:53:30Z</time>
      </trkpt>
      <trkpt lat="62.495196" lon="14.1561476">
        <ele>797</ele>
        <time>2014-04-19T16:53:34Z</time>
      </trkpt>
      <trkpt lat="62.4950334" lon="14.1565554">
        <ele>796.8</ele>
        <time>2014-04-19T16:53:39Z</time>
      </trkpt>
      <trkpt lat="62.4949948" lon="14.1566253">
        <ele>796.8</ele>
        <time>2014-04-19T16:53:40Z</time>
      </trkpt>
      <trkpt lat="62.4948614" lon="14.1568042">
        <ele>796.6</ele>
        <time>2014-04-19T16:53:43Z</time>
      </trkpt>
      <trkpt lat="62.4947014" lon="14.1570332">
        <ele>796.4</ele>
        <time>2014-04-19T16:53:47Z</time>
      </trkpt>
      <trkpt lat="62.4946309" lon="14.1572736">
        <ele>796.2</ele>
        <time>2014-04-19T16:53:51Z</time>
      </trkpt>
      <trkpt lat="62.494674" lon="14.1575035">
        <ele>794.6</ele>
        <time>2014-04-19T16:56:01Z</time>
      </trkpt>
      <trkpt lat="62.4947041" lon="14.1575486">
        <ele>794.6</ele>
        <time>2014-04-19T16:56:05Z</time>
      </trkpt>
      <trkpt lat="62.4948267" lon="14.1575652">
        <ele>794.6</ele>
        <time>2014-04-19T16:56:09Z</time>
      </trkpt>
      <trkpt lat="62.494944" lon="14.1574613">
        <ele>794.6</ele>
        <time>2014-04-19T16:56:13Z</time>
      </trkpt>
      <trkpt lat="62.4950275" lon="14.1573918">
        <ele>794.6</ele>
        <time>2014-04-19T16:56:17Z</time>
      </trkpt>
      <trkpt lat="62.4951289" lon="14.1573281">
        <ele>794.6</ele>
        <time>2014-04-19T16:56:21Z</time>
      </trkpt>
      <trkpt lat="62.4952582" lon="14.1572168">
        <ele>794.6</ele>
        <time>2014-04-19T16:56:26Z</time>
      </trkpt>
      <trkpt lat="62.4953624" lon="14.1571381">
        <ele>794.6</ele>
        <time>2014-04-19T16:56:31Z</time>
      </trkpt>
      <trkpt lat="62.4954151" lon="14.1570354">
        <ele>794.4</ele>
        <time>2014-04-19T16:56:35Z</time>
      </trkpt>
      <trkpt lat="62.4954608" lon="14.1569139">
        <ele>794.4</ele>
        <time>2014-04-19T16:56:40Z</time>
      </trkpt>
      <trkpt lat="62.4955044" lon="14.1568127">
        <ele>794.4</ele>
        <time>2014-04-19T16:56:45Z</time>
      </trkpt>
      <trkpt lat="62.4955594" lon="14.1566975">
        <ele>794.4</ele>
        <time>2014-04-19T16:56:50Z</time>
      </trkpt>
      <trkpt lat="62.495615" lon="14.1565677">
        <ele>794.6</ele>
        <time>2014-04-19T16:56:56Z</time>
      </trkpt>
      <trkpt lat="62.4956612" lon="14.1564814">
        <ele>794.6</ele>
        <time>2014-04-19T16:57:00Z</time>
      </trkpt>
      <trkpt lat="62.4956891" lon="14.1564217">
        <ele>794.6</ele>
        <time>2014-04-19T16:57:02Z</time>
      </trkpt>
      <trkpt lat="62.4957197" lon="14.1563389">
        <ele>794.8</ele>
        <time>2014-04-19T16:57:06Z</time>
      </trkpt>
      <trkpt lat="62.495743" lon="14.1562936">
        <ele>794.8</ele>
        <time>2014-04-19T16:57:08Z</time>
      </trkpt>
      <trkpt lat="62.4957785" lon="14.1562042">
        <ele>794.8</ele>
        <time>2014-04-19T16:57:10Z</time>
      </trkpt>
      <trkpt lat="62.4958323" lon="14.1560845">
        <ele>795</ele>
        <time>2014-04-19T16:57:14Z</time>
      </trkpt>
      <trkpt lat="62.4958467" lon="14.1559987">
        <ele>795.4</ele>
        <time>2014-04-19T16:57:19Z</time>
      </trkpt>
      <trkpt lat="62.4958787" lon="14.1559104">
        <ele>795.6</ele>
        <time>2014-04-19T16:57:23Z</time>
      </trkpt>
      <trkpt lat="62.4958989" lon="14.1558648">
        <ele>795.8</ele>
        <time>2014-04-19T16:57:25Z</time>
      </trkpt>
      <trkpt lat="62.4959441" lon="14.1557939">
        <ele>796</ele>
        <time>2014-04-19T16:57:28Z</time>
      </trkpt>
      <trkpt lat="62.4960553" lon="14.155763">
        <ele>796.4</ele>
        <time>2014-04-19T16:57:33Z</time>
      </trkpt>
      <trkpt lat="62.4961817" lon="14.1558005">
        <ele>796.6</ele>
        <time>2014-04-19T16:57:37Z</time>
      </trkpt>
      <trkpt lat="62.4963222" lon="14.155913">
        <ele>796.8</ele>
        <time>2014-04-19T16:57:41Z</time>
      </trkpt>
      <trkpt lat="62.4965104" lon="14.1560736">
        <ele>796.8</ele>
        <time>2014-04-19T16:57:46Z</time>
      </trkpt>
      <trkpt lat="62.4966329" lon="14.1563588">
        <ele>796.6</ele>
        <time>2014-04-19T16:57:51Z</time>
      </trkpt>
      <trkpt lat="62.4966781" lon="14.1564485">
        <ele>796.6</ele>
        <time>2014-04-19T16:57:53Z</time>
      </trkpt>
      <trkpt lat="62.4967544" lon="14.1565242">
        <ele>796.6</ele>
        <time>2014-04-19T16:57:56Z</time>
      </trkpt>
      <trkpt lat="62.4969056" lon="14.156675">
        <ele>796.4</ele>
        <time>2014-04-19T16:58:01Z</time>
      </trkpt>
      <trkpt lat="62.497022" lon="14.1567071">
        <ele>796.4</ele>
        <time>2014-04-19T16:58:05Z</time>
      </trkpt>
      <trkpt lat="62.497089" lon="14.1566971">
        <ele>796.2</ele>
        <time>2014-04-19T16:58:09Z</time>
      </trkpt>
      <trkpt lat="62.4971648" lon="14.1566704">
        <ele>796.2</ele>
        <time>2014-04-19T16:58:15Z</time>
      </trkpt>
      <trkpt lat="62.4971908" lon="14.1566739">
        <ele>796.2</ele>
        <time>2014-04-19T16:58:29Z</time>
      </trkpt>
      <trkpt lat="62.4972705" lon="14.1566007">
        <ele>796.2</ele>
        <time>2014-04-19T16:58:34Z</time>
      </trkpt>
      <trkpt lat="62.4973517" lon="14.1564763">
        <ele>796.2</ele>
        <time>2014-04-19T16:58:39Z</time>
      </trkpt>
      <trkpt lat="62.4974122" lon="14.1562789">
        <ele>796.2</ele>
        <time>2014-04-19T16:58:43Z</time>
      </trkpt>
      <trkpt lat="62.4974151" lon="14.1560959">
        <ele>796.2</ele>
        <time>2014-04-19T16:58:47Z</time>
      </trkpt>
      <trkpt lat="62.4973986" lon="14.1559666">
        <ele>796.2</ele>
        <time>2014-04-19T16:58:51Z</time>
      </trkpt>
      <trkpt lat="62.497382" lon="14.1558779">
        <ele>796.2</ele>
        <time>2014-04-19T16:58:55Z</time>
      </trkpt>
      <trkpt lat="62.4973609" lon="14.1557307">
        <ele>796.2</ele>
        <time>2014-04-19T16:58:59Z</time>
      </trkpt>
      <trkpt lat="62.4973577" lon="14.1555023">
        <ele>796.2</ele>
        <time>2014-04-19T16:59:04Z</time>
      </trkpt>
      <trkpt lat="62.497346" lon="14.1552172">
        <ele>796.2</ele>
        <time>2014-04-19T16:59:09Z</time>
      </trkpt>
      <trkpt lat="62.4972889" lon="14.1549854">
        <ele>796.2</ele>
        <time>2014-04-19T16:59:13Z</time>
      </trkpt>
      <trkpt lat="62.4972509" lon="14.1547431">
        <ele>796.2</ele>
        <time>2014-04-19T16:59:17Z</time>
      </trkpt>
      <trkpt lat="62.4972461" lon="14.1543748">
        <ele>796</ele>
        <time>2014-04-19T16:59:22Z</time>
      </trkpt>
      <trkpt lat="62.4971947" lon="14.1541287">
        <ele>796</ele>
        <time>2014-04-19T16:59:26Z</time>
      </trkpt>
      <trkpt lat="62.4971483" lon="14.1539759">
        <ele>795.8</ele>
        <time>2014-04-19T16:59:29Z</time>
      </trkpt>
      <trkpt lat="62.4970702" lon="14.1537986">
        <ele>795.8</ele>
        <time>2014-04-19T16:59:33Z</time>
      </trkpt>
      <trkpt lat="62.4969391" lon="14.1536628">
        <ele>795.6</ele>
        <time>2014-04-19T16:59:38Z</time>
      </trkpt>
      <trkpt lat="62.496842" lon="14.153468">
        <ele>795.4</ele>
        <time>2014-04-19T16:59:43Z</time>
      </trkpt>
      <trkpt lat="62.4968202" lon="14.1533955">
        <ele>795.4</ele>
        <time>2014-04-19T16:59:45Z</time>
      </trkpt>
      <trkpt lat="62.4968034" lon="14.1533229">
        <ele>795.4</ele>
        <time>2014-04-19T16:59:47Z</time>
      </trkpt>
      <trkpt lat="62.4967539" lon="14.1531669">
        <ele>795.2</ele>
        <time>2014-04-19T16:59:52Z</time>
      </trkpt>
      <trkpt lat="62.4967142" lon="14.1530888">
        <ele>795.2</ele>
        <time>2014-04-19T16:59:55Z</time>
      </trkpt>
      <trkpt lat="62.4966407" lon="14.1528926">
        <ele>795.2</ele>
        <time>2014-04-19T17:00:00Z</time>
      </trkpt>
      <trkpt lat="62.4966194" lon="14.1527749">
        <ele>795</ele>
        <time>2014-04-19T17:00:05Z</time>
      </trkpt>
      <trkpt lat="62.4966033" lon="14.1526573">
        <ele>795</ele>
        <time>2014-04-19T17:00:08Z</time>
      </trkpt>
      <trkpt lat="62.4966071" lon="14.1522845">
        <ele>795</ele>
        <time>2014-04-19T17:00:16Z</time>
      </trkpt>
      <trkpt lat="62.4966584" lon="14.1520614">
        <ele>794.8</ele>
        <time>2014-04-19T17:00:21Z</time>
      </trkpt>
      <trkpt lat="62.4967719" lon="14.1517305">
        <ele>794.8</ele>
        <time>2014-04-19T17:00:26Z</time>
      </trkpt>
      <trkpt lat="62.4968706" lon="14.1513573">
        <ele>794.6</ele>
        <time>2014-04-19T17:00:31Z</time>
      </trkpt>
      <trkpt lat="62.4969647" lon="14.1509999">
        <ele>794.4</ele>
        <time>2014-04-19T17:00:37Z</time>
      </trkpt>
      <trkpt lat="62.4970871" lon="14.1507169">
        <ele>794.2</ele>
        <time>2014-04-19T17:00:43Z</time>
      </trkpt>
      <trkpt lat="62.4972273" lon="14.1502988">
        <ele>793.8</ele>
        <time>2014-04-19T17:00:51Z</time>
      </trkpt>
      <trkpt lat="62.4973667" lon="14.1497158">
        <ele>793.2</ele>
        <time>2014-04-19T17:01:00Z</time>
      </trkpt>
      <trkpt lat="62.4975294" lon="14.1494573">
        <ele>792.8</ele>
        <time>2014-04-19T17:01:05Z</time>
      </trkpt>
      <trkpt lat="62.4976256" lon="14.1491961">
        <ele>792.6</ele>
        <time>2014-04-19T17:01:08Z</time>
      </trkpt>
      <trkpt lat="62.4976581" lon="14.148966">
        <ele>792.4</ele>
        <time>2014-04-19T17:01:10Z</time>
      </trkpt>
      <trkpt lat="62.4976679" lon="14.1487514">
        <ele>792.2</ele>
        <time>2014-04-19T17:01:12Z</time>
      </trkpt>
      <trkpt lat="62.4976679" lon="14.1486545">
        <ele>792.2</ele>
        <time>2014-04-19T17:01:13Z</time>
      </trkpt>
      <trkpt lat="62.4976639" lon="14.1485023">
        <ele>792</ele>
        <time>2014-04-19T17:01:15Z</time>
      </trkpt>
      <trkpt lat="62.4976472" lon="14.1484085">
        <ele>791.8</ele>
        <time>2014-04-19T17:01:17Z</time>
      </trkpt>
      <trkpt lat="62.4976431" lon="14.1483262">
        <ele>791.6</ele>
        <time>2014-04-19T17:01:21Z</time>
      </trkpt>
      <trkpt lat="62.4976236" lon="14.1482235">
        <ele>791.4</ele>
        <time>2014-04-19T17:01:26Z</time>
      </trkpt>
      <trkpt lat="62.4976022" lon="14.1481051">
        <ele>791</ele>
        <time>2014-04-19T17:01:30Z</time>
      </trkpt>
      <trkpt lat="62.4975884" lon="14.1479815">
        <ele>790.8</ele>
        <time>2014-04-19T17:01:34Z</time>
      </trkpt>
      <trkpt lat="62.4975571" lon="14.1477979">
        <ele>790.6</ele>
        <time>2014-04-19T17:01:39Z</time>
      </trkpt>
      <trkpt lat="62.4975387" lon="14.1477073">
        <ele>790.4</ele>
        <time>2014-04-19T17:01:42Z</time>
      </trkpt>
      <trkpt lat="62.497529" lon="14.1476721">
        <ele>790.2</ele>
        <time>2014-04-19T17:01:43Z</time>
      </trkpt>
      <trkpt lat="62.4975103" lon="14.1475547">
        <ele>790.2</ele>
        <time>2014-04-19T17:01:46Z</time>
      </trkpt>
      <trkpt lat="62.4974968" lon="14.1473405">
        <ele>790</ele>
        <time>2014-04-19T17:01:50Z</time>
      </trkpt>
      <trkpt lat="62.4975226" lon="14.1471453">
        <ele>789.8</ele>
        <time>2014-04-19T17:01:54Z</time>
      </trkpt>
      <trkpt lat="62.4975654" lon="14.1468324">
        <ele>789.4</ele>
        <time>2014-04-19T17:01:59Z</time>
      </trkpt>
      <trkpt lat="62.49755" lon="14.1466216">
        <ele>789.4</ele>
        <time>2014-04-19T17:02:03Z</time>
      </trkpt>
      <trkpt lat="62.4975293" lon="14.1463649">
        <ele>789.2</ele>
        <time>2014-04-19T17:02:07Z</time>
      </trkpt>
      <trkpt lat="62.4974784" lon="14.1461696">
        <ele>789</ele>
        <time>2014-04-19T17:02:11Z</time>
      </trkpt>
      <trkpt lat="62.4973956" lon="14.1459444">
        <ele>788.8</ele>
        <time>2014-04-19T17:02:17Z</time>
      </trkpt>
      <trkpt lat="62.4973393" lon="14.1458006">
        <ele>788.6</ele>
        <time>2014-04-19T17:02:21Z</time>
      </trkpt>
      <trkpt lat="62.4972714" lon="14.1456285">
        <ele>788.4</ele>
        <time>2014-04-19T17:02:25Z</time>
      </trkpt>
      <trkpt lat="62.4972515" lon="14.1455845">
        <ele>788.4</ele>
        <time>2014-04-19T17:02:26Z</time>
      </trkpt>
      <trkpt lat="62.497225" lon="14.1454996">
        <ele>788.2</ele>
        <time>2014-04-19T17:02:28Z</time>
      </trkpt>
      <trkpt lat="62.4971425" lon="14.1451573">
        <ele>787.8</ele>
        <time>2014-04-19T17:02:34Z</time>
      </trkpt>
      <trkpt lat="62.4971295" lon="14.1448459">
        <ele>787.6</ele>
        <time>2014-04-19T17:02:39Z</time>
      </trkpt>
      <trkpt lat="62.4971071" lon="14.1446007">
        <ele>787.4</ele>
        <time>2014-04-19T17:02:43Z</time>
      </trkpt>
      <trkpt lat="62.4970443" lon="14.1444279">
        <ele>787.4</ele>
        <time>2014-04-19T17:02:47Z</time>
      </trkpt>
      <trkpt lat="62.4970033" lon="14.1442345">
        <ele>787.2</ele>
        <time>2014-04-19T17:02:51Z</time>
      </trkpt>
      <trkpt lat="62.4969796" lon="14.143902">
        <ele>787</ele>
        <time>2014-04-19T17:02:57Z</time>
      </trkpt>
      <trkpt lat="62.4969302" lon="14.1435994">
        <ele>786.8</ele>
        <time>2014-04-19T17:03:02Z</time>
      </trkpt>
      <trkpt lat="62.4968692" lon="14.1432527">
        <ele>786.8</ele>
        <time>2014-04-19T17:03:07Z</time>
      </trkpt>
      <trkpt lat="62.4967555" lon="14.1429824">
        <ele>786.6</ele>
        <time>2014-04-19T17:03:12Z</time>
      </trkpt>
      <trkpt lat="62.4966505" lon="14.1427178">
        <ele>786.6</ele>
        <time>2014-04-19T17:03:18Z</time>
      </trkpt>
      <trkpt lat="62.4966008" lon="14.1425314">
        <ele>786.4</ele>
        <time>2014-04-19T17:03:22Z</time>
      </trkpt>
      <trkpt lat="62.4965421" lon="14.1423338">
        <ele>786.2</ele>
        <time>2014-04-19T17:03:26Z</time>
      </trkpt>
      <trkpt lat="62.4964706" lon="14.1421948">
        <ele>786.2</ele>
        <time>2014-04-19T17:03:30Z</time>
      </trkpt>
      <trkpt lat="62.4963607" lon="14.1419639">
        <ele>786</ele>
        <time>2014-04-19T17:03:35Z</time>
      </trkpt>
      <trkpt lat="62.4962981" lon="14.1416817">
        <ele>785.8</ele>
        <time>2014-04-19T17:03:39Z</time>
      </trkpt>
      <trkpt lat="62.4962175" lon="14.1414931">
        <ele>785.6</ele>
        <time>2014-04-19T17:03:43Z</time>
      </trkpt>
      <trkpt lat="62.4961072" lon="14.1413677">
        <ele>785.4</ele>
        <time>2014-04-19T17:03:48Z</time>
      </trkpt>
      <trkpt lat="62.496084" lon="14.1413606">
        <ele>785.4</ele>
        <time>2014-04-19T17:03:49Z</time>
      </trkpt>
      <trkpt lat="62.4959661" lon="14.1413052">
        <ele>785.2</ele>
        <time>2014-04-19T17:03:54Z</time>
      </trkpt>
      <trkpt lat="62.4958613" lon="14.1412605">
        <ele>785</ele>
        <time>2014-04-19T17:03:58Z</time>
      </trkpt>
      <trkpt lat="62.4957752" lon="14.1411985">
        <ele>784.8</ele>
        <time>2014-04-19T17:04:03Z</time>
      </trkpt>
      <trkpt lat="62.4956917" lon="14.1411352">
        <ele>784.6</ele>
        <time>2014-04-19T17:04:07Z</time>
      </trkpt>
      <trkpt lat="62.495629" lon="14.1410393">
        <ele>784.6</ele>
        <time>2014-04-19T17:04:10Z</time>
      </trkpt>
      <trkpt lat="62.4955625" lon="14.1409077">
        <ele>784.4</ele>
        <time>2014-04-19T17:04:14Z</time>
      </trkpt>
      <trkpt lat="62.4954447" lon="14.1408003">
        <ele>784.4</ele>
        <time>2014-04-19T17:04:19Z</time>
      </trkpt>
      <trkpt lat="62.4954256" lon="14.1407768">
        <ele>784.2</ele>
        <time>2014-04-19T17:04:22Z</time>
      </trkpt>
    </trkseg>
  </trk>
</gpx>